createdAt,value
2018-11-22T00:02:14.544Z,38.60
2018-11-22T00:04:42.749Z,36.37
2018-11-22T00:07:12.655Z,38.50
2018-11-22T00:09:40.956Z,38.10
2018-11-22T00:12:09.265Z,37.33
2018-11-22T00:14:37.500Z,36.50
2018-11-22T00:17:06.100Z,36.83
2018-11-22T00:19:34.357Z,35.43
2018-11-22T00:22:02.601Z,36.60
2018-11-22T00:24:31.876Z,37.03
2018-11-22T00:27:00.114Z,36.63
2018-11-22T00:29:28.351Z,35.37
2018-11-22T00:31:56.668Z,34.20
2018-11-22T00:34:24.878Z,35.90
2018-11-22T00:36:53.078Z,36.17
2018-11-22T00:39:21.308Z,34.77
2018-11-22T00:41:49.562Z,36.70
2018-11-22T00:44:18.835Z,37.93
2018-11-22T00:46:47.105Z,37.27
2018-11-22T00:49:15.312Z,36.83
2018-11-22T00:51:43.533Z,35.17
2018-11-22T00:54:11.832Z,36.87
2018-11-22T00:56:40.097Z,36.57
2018-11-22T00:59:08.319Z,37.67
2018-11-22T01:01:36.583Z,35.73
2018-11-22T01:04:05.372Z,36.63
2018-11-22T01:06:33.572Z,36.33
2018-11-22T01:09:02.564Z,34.97
2018-11-22T01:11:30.792Z,34.57
2018-11-22T01:13:59.025Z,36.57
2018-11-22T01:16:27.364Z,35.57
2018-11-22T01:18:55.583Z,35.90
2018-11-22T01:21:23.850Z,35.07
2018-11-22T01:23:52.162Z,37.43
2018-11-22T01:26:20.429Z,35.63
2018-11-22T01:28:48.739Z,34.80
2018-11-22T01:31:17.048Z,36.20
2018-11-22T01:36:13.474Z,34.97
2018-11-22T01:38:41.744Z,36.30
2018-11-22T01:41:09.906Z,35.33
2018-11-22T01:43:38.114Z,36.40
2018-11-22T01:46:06.414Z,35.63
2018-11-22T01:48:34.629Z,36.47
2018-11-22T01:51:02.972Z,35.93
2018-11-22T01:53:31.237Z,36.10
2018-11-22T01:55:59.445Z,34.53
2018-11-22T01:58:27.682Z,36.30
2018-11-22T02:00:55.903Z,36.03
2018-11-22T02:03:24.142Z,35.57
2018-11-22T02:05:52.467Z,34.40
2018-11-22T02:08:20.717Z,34.57
2018-11-22T02:10:48.878Z,37.20
2018-11-22T02:13:17.213Z,34.80
2018-11-22T02:15:45.422Z,35.60
2018-11-22T02:18:13.669Z,35.07
2018-11-22T02:20:42.117Z,35.43
2018-11-22T02:23:10.334Z,35.77
2018-11-22T02:25:38.555Z,33.27
2018-11-22T02:28:06.829Z,33.67
2018-11-22T02:30:35.026Z,35.80
2018-11-22T02:33:03.259Z,33.43
2018-11-22T02:35:31.549Z,35.87
2018-11-22T02:37:59.804Z,35.20
2018-11-22T02:40:28.009Z,34.63
2018-11-22T02:42:56.687Z,35.33
2018-11-22T02:45:26.405Z,35.20
2018-11-22T02:47:54.631Z,33.60
2018-11-22T02:50:23.738Z,33.60
2018-11-22T02:52:52.567Z,31.70
2018-11-22T02:55:20.811Z,31.97
2018-11-22T02:57:49.115Z,32.20
2018-11-22T03:00:43.401Z,34.13
2018-11-22T03:03:13.114Z,32.47
2018-11-22T03:05:41.367Z,35.07
2018-11-22T03:08:09.825Z,35.40
2018-11-22T03:10:38.076Z,33.80
2018-11-22T03:13:07.457Z,33.57
2018-11-22T03:15:35.669Z,32.90
2018-11-22T03:18:04.029Z,34.13
2018-11-22T03:20:32.237Z,33.87
2018-11-22T03:23:00.443Z,30.90
2018-11-22T03:25:28.745Z,33.53
2018-11-22T03:27:56.997Z,32.73
2018-11-22T03:30:25.632Z,34.00
2018-11-22T03:32:53.885Z,31.33
2018-11-22T03:35:23.611Z,31.67
2018-11-22T03:37:51.900Z,33.30
2018-11-22T03:40:21.589Z,32.87
2018-11-22T03:42:49.855Z,34.37
2018-11-22T03:45:18.735Z,33.33
2018-11-22T03:47:47.063Z,31.90
2018-11-22T03:50:17.224Z,32.27
2018-11-22T03:52:46.210Z,32.03
2018-11-22T03:55:15.672Z,32.10
2018-11-22T03:57:44.498Z,32.77
2018-11-22T04:00:14.561Z,32.20
2018-11-22T04:02:43.198Z,32.30
2018-11-22T04:05:13.078Z,31.10
2018-11-22T04:07:41.270Z,31.53
2018-11-22T04:10:16.867Z,33.43
2018-11-22T04:12:45.093Z,31.40
2018-11-22T04:15:13.721Z,32.20
2018-11-22T04:17:41.998Z,33.40
2018-11-22T04:20:13.235Z,31.87
2018-11-22T04:22:41.479Z,32.50
2018-11-22T04:25:11.089Z,32.87
2018-11-22T04:27:39.374Z,33.23
2018-11-22T04:30:16.324Z,32.60
2018-11-22T04:32:44.656Z,33.00
2018-11-22T04:35:14.208Z,33.43
2018-11-22T04:37:42.782Z,34.27
2018-11-22T04:40:15.442Z,33.23
2018-11-22T04:42:43.934Z,32.93
2018-11-22T04:45:12.854Z,33.87
2018-11-22T04:47:41.195Z,34.30
2018-11-22T04:50:10.952Z,33.60
2018-11-22T04:52:39.166Z,32.93
2018-11-22T04:55:08.069Z,33.63
2018-11-22T04:57:36.365Z,33.77
2018-11-22T05:00:09.275Z,32.73
2018-11-22T05:02:37.465Z,32.97
2018-11-22T05:05:09.951Z,32.17
2018-11-22T05:07:38.271Z,34.87
2018-11-22T05:10:08.428Z,35.37
2018-11-22T05:12:36.656Z,32.23
2018-11-22T05:15:06.175Z,35.17
2018-11-22T05:17:34.405Z,32.07
2018-11-22T05:20:02.626Z,34.43
2018-11-22T05:22:30.889Z,34.60
2018-11-22T05:24:59.327Z,34.40
2018-11-22T05:27:27.562Z,34.43
2018-11-22T05:29:56.285Z,34.73
2018-11-22T05:32:24.507Z,34.00
2018-11-22T05:34:53.125Z,36.53
2018-11-22T05:37:21.387Z,34.43
2018-11-22T05:39:49.596Z,34.57
2018-11-22T05:42:18.030Z,34.07
2018-11-22T05:44:46.328Z,35.57
2018-11-22T05:47:14.573Z,37.57
2018-11-22T05:49:42.782Z,35.77
2018-11-22T05:52:11.039Z,37.87
2018-11-22T05:54:49.100Z,35.63
2018-11-22T05:57:17.505Z,37.23
2018-11-22T05:59:45.773Z,37.00
2018-11-22T06:02:14.241Z,37.30
2018-11-22T06:04:42.846Z,35.33
2018-11-22T06:07:11.058Z,33.97
2018-11-22T06:09:39.278Z,37.27
2018-11-22T06:12:09.285Z,36.50
2018-11-22T06:14:37.843Z,35.70
2018-11-22T06:17:06.108Z,35.40
2018-11-22T06:19:37.838Z,37.70
2018-11-22T06:22:06.098Z,37.20
2018-11-22T06:24:34.354Z,36.23
2018-11-22T06:27:02.649Z,37.23
2018-11-22T06:29:30.910Z,37.73
2018-11-22T06:31:59.144Z,37.20
2018-11-22T06:34:27.472Z,37.63
2018-11-22T06:36:55.736Z,45.25
2018-11-22T06:39:24.041Z,39.43
2018-11-22T06:41:52.273Z,47.47
2018-11-22T06:44:20.553Z,47.10
2018-11-22T12:18:03.744Z,24.63
2018-11-22T12:20:32.224Z,25.93
2018-11-22T12:23:00.717Z,26.00
2018-11-22T12:25:29.472Z,25.10
2018-11-22T12:28:01.161Z,25.13
2018-11-22T12:30:31.141Z,25.13
2018-11-22T12:33:01.479Z,23.30
2018-11-22T12:35:35.179Z,24.20
2018-11-22T12:38:08.900Z,24.30
2018-11-22T12:40:37.673Z,25.63
2018-11-22T12:43:05.863Z,25.27
2018-11-22T12:45:34.340Z,23.47
2018-11-22T12:48:02.812Z,22.13
2018-11-22T12:50:31.291Z,23.17
2018-11-22T12:52:59.901Z,21.87
2018-11-22T12:55:28.604Z,23.53
2018-11-22T12:57:57.097Z,24.73
2018-11-22T13:00:25.646Z,23.00
2018-11-22T13:02:59.697Z,22.03
2018-11-22T13:05:28.291Z,23.00
2018-11-22T13:07:56.978Z,22.10
2018-11-22T13:10:25.535Z,22.90
2018-11-22T13:12:54.093Z,22.07
2018-11-22T13:15:22.894Z,21.50
2018-11-22T13:17:51.743Z,21.73
2018-11-22T13:20:21.437Z,21.37
2018-11-22T13:22:49.948Z,22.33
2018-11-22T13:25:20.049Z,23.77
2018-11-22T13:30:42.843Z,22.03
2018-11-22T13:33:11.412Z,21.60
2018-11-22T13:35:39.982Z,22.03
2018-11-22T13:38:08.681Z,23.97
2018-11-22T13:40:37.220Z,22.80
2018-11-22T13:43:06.022Z,28.23
2018-11-22T14:02:53.414Z,21.70
2018-11-22T14:05:21.851Z,22.70
2018-11-22T14:07:50.347Z,22.10
2018-11-22T14:10:20.025Z,21.60
2018-11-22T14:12:48.559Z,21.43
2018-11-22T14:15:18.640Z,22.13
2018-11-22T14:17:47.892Z,21.53
2018-11-22T14:20:17.655Z,21.53
2018-11-22T14:22:46.188Z,20.67
2018-11-22T14:25:15.596Z,21.17
2018-11-22T14:27:45.015Z,20.67
2018-11-22T14:30:15.124Z,20.60
2018-11-22T14:32:44.373Z,21.00
2018-11-22T14:35:14.422Z,20.70
2018-11-22T14:37:43.633Z,23.27
2018-11-22T14:40:19.266Z,22.63
2018-11-22T14:42:52.366Z,21.20
2018-11-22T14:45:22.188Z,22.37
2018-11-22T14:47:51.404Z,22.33
2018-11-22T14:50:22.523Z,22.70
2018-11-22T14:52:56.262Z,22.03
2018-11-22T14:55:24.983Z,21.73
2018-11-22T14:57:53.806Z,23.83
2018-11-22T15:00:22.360Z,23.13
2018-11-22T15:02:50.791Z,24.70
2018-11-22T15:05:19.588Z,23.87
2018-11-22T15:07:48.174Z,24.63
2018-11-22T15:10:17.245Z,21.57
2018-11-22T15:12:46.904Z,22.87
2018-11-22T15:15:17.356Z,23.77
2018-11-22T15:17:45.836Z,23.13
2018-11-22T15:20:15.564Z,21.60
2018-11-22T15:22:44.868Z,22.60
2018-11-22T15:25:29.071Z,23.17
2018-11-22T15:27:57.360Z,22.80
2018-11-22T15:30:27.351Z,26.53
2018-11-22T15:32:56.399Z,27.33
2018-11-22T15:35:26.190Z,26.80
2018-11-22T15:37:54.983Z,27.37
2018-11-22T15:40:24.452Z,26.07
2018-11-22T15:42:54.267Z,25.00
2018-11-22T15:45:23.980Z,24.07
2018-11-22T15:47:52.640Z,23.90
2018-11-22T15:50:22.535Z,23.60
2018-11-22T15:52:52.291Z,23.00
2018-11-22T15:55:21.345Z,23.40
2018-11-22T15:57:50.959Z,22.30
2018-11-22T16:00:22.874Z,22.27
2018-11-22T16:02:51.892Z,22.90
2018-11-22T16:05:21.094Z,23.60
2018-11-22T16:07:49.655Z,23.03
2018-11-22T16:10:26.267Z,23.13
2018-11-22T16:12:52.141Z,24.23
2018-11-22T16:15:35.595Z,23.03
2018-11-22T16:18:04.084Z,23.37
2018-11-22T16:20:33.600Z,23.03
2018-11-22T16:23:02.042Z,22.97
2018-11-22T16:25:30.738Z,21.10
2018-11-22T16:27:59.230Z,21.33
2018-11-22T16:30:28.638Z,23.17
2018-11-22T16:32:57.279Z,22.77
2018-11-22T16:35:33.222Z,23.53
2018-11-22T16:37:55.061Z,22.53
2018-11-22T16:40:26.540Z,22.17
2018-11-22T16:42:56.012Z,21.90
2018-11-22T16:45:27.022Z,21.97
2018-11-22T16:47:56.179Z,23.67
2018-11-22T16:50:25.965Z,24.10
2018-11-22T16:52:55.232Z,23.73
2018-11-22T16:55:25.263Z,23.20
2018-11-22T16:57:54.814Z,23.23
2018-11-22T17:00:28.435Z,25.33
2018-11-22T17:02:58.630Z,35.40
2018-11-22T17:05:32.775Z,30.13
2018-11-22T17:08:04.062Z,28.83
2018-11-22T17:10:33.213Z,29.97
2018-11-22T17:13:02.616Z,31.17
2018-11-22T17:15:33.308Z,24.77
2018-11-22T17:18:02.396Z,23.40
2018-11-22T17:20:31.658Z,23.30
2018-11-22T17:23:00.360Z,23.20
2018-11-22T17:25:30.543Z,24.10
2018-11-22T17:28:01.603Z,24.03
2018-11-22T17:30:34.118Z,23.30
2018-11-22T17:33:06.445Z,22.40
2018-11-22T17:35:35.019Z,23.97
2018-11-22T17:38:04.665Z,23.27
2018-11-22T17:40:34.969Z,22.83
2018-11-22T17:43:03.477Z,24.03
2018-11-22T17:45:36.475Z,24.07
2018-11-22T17:48:05.359Z,23.23
2018-11-22T17:50:35.849Z,25.03
2018-11-22T17:53:04.916Z,24.13
2018-11-22T17:55:33.849Z,24.63
2018-11-22T17:58:02.474Z,24.07
2018-11-22T18:00:32.697Z,24.07
2018-11-22T18:03:02.077Z,23.60
2018-11-22T18:05:30.779Z,24.13
2018-11-22T18:07:59.292Z,25.80
2018-11-22T18:10:34.443Z,30.03
2018-11-22T18:13:03.981Z,28.37
2018-11-22T18:16:09.040Z,33.27
2018-11-22T18:18:43.388Z,30.57
2018-11-22T18:21:22.368Z,27.10
2018-11-22T18:23:51.601Z,27.13
2018-11-22T18:26:25.687Z,24.97
2018-11-22T18:28:55.377Z,24.23
2018-11-22T18:31:23.923Z,23.50
2018-11-22T18:33:52.622Z,25.77
2018-11-22T18:36:21.151Z,25.53
2018-11-22T18:38:49.589Z,28.27
2018-11-22T18:41:20.101Z,28.00
2018-11-22T18:43:48.755Z,29.07
2018-11-22T18:46:18.274Z,29.90
2018-11-22T18:48:46.882Z,28.07
2018-11-22T18:51:21.406Z,27.87
2018-11-22T18:53:50.987Z,31.53
2018-11-22T18:56:19.610Z,27.87
2018-11-22T18:58:56.535Z,35.45
2018-11-22T19:01:25.144Z,28.37
2018-11-22T19:03:54.763Z,30.40
2018-11-22T19:06:25.326Z,28.57
2018-11-22T19:08:53.961Z,26.87
2018-11-22T19:11:22.497Z,25.03
2018-11-22T19:13:50.988Z,24.67
2018-11-22T19:16:19.501Z,27.40
2018-11-22T19:18:51.512Z,24.63
2018-11-22T19:21:20.015Z,23.90
2018-11-22T19:23:48.563Z,31.97
2018-11-22T19:26:17.090Z,25.70
2018-11-22T19:28:45.743Z,23.87
2018-11-22T19:31:14.349Z,24.97
2018-11-22T19:33:43.661Z,24.57
2018-11-22T19:36:12.953Z,23.67
2018-11-22T19:38:41.612Z,24.60
2018-11-22T19:41:10.246Z,23.53
2018-11-22T19:43:39.389Z,23.00
2018-11-22T19:46:08.490Z,21.17
2018-11-22T19:48:37.181Z,23.97
2018-11-22T19:51:06.037Z,23.93
2018-11-22T19:53:34.584Z,24.40
2018-11-22T19:56:03.194Z,24.07
2018-11-22T19:58:31.869Z,22.80
2018-11-22T20:01:03.579Z,22.47
2018-11-22T20:03:29.157Z,24.50
2018-11-22T20:05:57.943Z,24.50
2018-11-22T20:08:26.730Z,22.60
2018-11-22T20:10:55.443Z,23.70
2018-11-22T20:13:24.563Z,22.80
2018-11-22T20:15:53.235Z,21.90
2018-11-22T20:18:22.225Z,25.43
2018-11-22T20:20:50.971Z,24.77
2018-11-22T20:23:21.808Z,24.23
2018-11-22T20:25:48.517Z,24.60
2018-11-22T20:28:17.326Z,24.57
2018-11-22T20:30:46.563Z,24.00
2018-11-22T20:33:15.298Z,24.33
2018-11-22T20:35:43.881Z,23.07
2018-11-22T20:38:12.676Z,24.03
2018-11-22T20:40:41.388Z,23.93
2018-11-22T20:43:11.152Z,23.17
2018-11-22T20:45:41.031Z,23.13
2018-11-22T20:48:08.835Z,23.90
2018-11-22T20:50:37.789Z,22.33
2018-11-22T20:53:06.928Z,23.17
2018-11-22T20:55:37.045Z,24.13
2018-11-22T20:58:07.425Z,24.00
2018-11-22T21:00:37.869Z,24.43
2018-11-22T21:03:06.611Z,23.77
2018-11-22T21:05:35.421Z,23.73
2018-11-22T21:08:04.222Z,24.77
2018-11-22T21:10:33.463Z,24.47
2018-11-22T21:13:02.525Z,23.30
2018-11-22T21:15:35.543Z,24.13
2018-11-22T21:18:05.629Z,25.40
2018-11-22T21:20:35.959Z,25.27
2018-11-22T21:23:04.466Z,24.50
2018-11-22T21:25:33.279Z,23.20
2018-11-22T21:28:01.829Z,24.27
2018-11-22T21:30:32.857Z,23.97
2018-11-22T21:33:02.147Z,23.10
2018-11-22T21:35:31.241Z,23.73
2018-11-22T21:38:00.929Z,25.47
2018-11-22T21:40:30.133Z,25.27
2018-11-22T21:42:58.895Z,25.47
2018-11-22T21:45:27.885Z,22.90
2018-11-22T21:47:56.609Z,25.17
2018-11-22T21:50:26.225Z,26.10
2018-11-22T21:52:54.720Z,27.10
2018-11-22T21:55:25.555Z,24.23
2018-11-22T21:57:55.681Z,25.57
2018-11-22T22:00:36.171Z,26.33
2018-11-22T22:03:06.302Z,26.63
2018-11-22T22:05:34.966Z,26.63
2018-11-22T22:08:07.271Z,27.43
2018-11-22T22:10:35.960Z,26.67
2018-11-22T22:13:04.625Z,25.57
2018-11-22T22:15:34.245Z,26.73
2018-11-22T22:18:02.917Z,24.53
2018-11-22T22:20:32.936Z,24.57
2018-11-22T22:23:01.544Z,27.27
2018-11-22T22:25:30.112Z,26.13
2018-11-22T22:27:59.022Z,25.57
2018-11-22T22:30:28.869Z,27.37
2018-11-22T22:32:58.783Z,25.17
2018-11-22T22:35:27.446Z,27.10
2018-11-22T22:37:55.938Z,27.53
2018-11-22T22:40:25.664Z,26.37
2018-11-22T22:42:55.130Z,28.37
2018-11-22T22:45:24.786Z,27.13
2018-11-22T22:47:53.621Z,26.67
2018-11-22T22:50:23.363Z,28.03
2018-11-22T22:52:53.254Z,27.90
2018-11-22T22:55:21.805Z,28.23
2018-11-22T22:57:50.380Z,28.90
2018-11-22T23:00:24.985Z,27.13
2018-11-22T23:02:55.714Z,27.67
2018-11-22T23:05:25.006Z,28.73
2018-11-22T23:07:53.627Z,26.73
2018-11-22T23:10:22.723Z,25.30
2018-11-22T23:12:51.340Z,26.03
2018-11-22T23:15:20.247Z,28.07
2018-11-22T23:17:48.923Z,27.40
2018-11-22T23:20:19.410Z,26.37
2018-11-22T23:22:48.418Z,25.60
2018-11-22T23:25:17.918Z,25.30
2018-11-22T23:27:46.586Z,25.67
2018-11-22T23:30:22.205Z,25.03
2018-11-22T23:32:53.852Z,26.07
2018-11-22T23:35:22.817Z,25.33
2018-11-22T23:37:51.785Z,26.10
2018-11-22T23:40:21.454Z,24.50
2018-11-22T23:42:50.000Z,25.00
2018-11-22T23:45:19.676Z,24.77
2018-11-22T23:47:48.623Z,26.23
2018-11-22T23:50:19.383Z,25.90
2018-11-22T23:52:49.233Z,25.13
2018-11-22T23:55:17.905Z,23.77
2018-11-22T23:57:46.620Z,24.63
